Delta Billie — WDE8059 — position and weather

sailwx.info

Track history (hours):
 
Tides and Currents Weather Stations Pressure Air Temp Water Temp Dewpoint Dewpoint Depression Visibility Wind Speed Wind Dir Waves Ship Positions

Delta Billie

Owner: Baydelta Maritime, San Francicso, CA. More information available from US FCC via Universal Licensing System and Coast Guard Vessel Documentation Center.

Last reported at 2014-Nov-26 05:09 UTC. Time now 2014-Nov-26 06:31 UTC.
Position N 38°02' W 122°10'.

Length 30 m; draft 5.5 m.

Type: Towing. MMSI: 367401030.

Date/timePositionNaut miles runAvg speedWind from/ knotsBaromVisibWave heightAir tempDewpointWater temp
2014-Nov-26 05:09N 38°02' W 122°10'5 8.3
2014-Nov-26 04:31N 38°03' W 122°17'8 8.7
2014-Nov-26 03:33N 37°59' W 122°26'3 3.3
2014-Nov-26 02:34N 37°55' W 122°25'3 3.0
2014-Nov-26 01:34N 37°52' W 122°25'7 7.0
2014-Nov-26 00:33N 37°59' W 122°25'1110.2
2014-Nov-25 23:28N 38°04' W 122°12'1 0.3
2014-Nov-25 19:22N 38°03' W 122°11'8 8.8
2014-Nov-25 18:31N 38°03' W 122°20'9 9.5
2014-Nov-25 17:33N 37°55' W 122°27'6 6.5
2014-Nov-25 16:34N 37°49' W 122°29'1 1.1
2014-Nov-25 15:33N 37°48' W 122°30'5 4.5
2014-Nov-25 14:33N 37°48' W 122°24'0 0.0
2014-Nov-25 13:33N 37°48' W 122°24'0 0.0
2014-Nov-25 12:34N 37°48' W 122°24'0 0.0
2014-Nov-25 11:33N 37°48' W 122°24'5 5.2
2014-Nov-25 10:33N 37°48' W 122°17'1 0.9
2014-Nov-25 09:33N 37°48' W 122°18'1 0.6
2014-Nov-25 08:34N 37°48' W 122°19'0 0.0
2014-Nov-25 07:34N 37°48' W 122°19'0 0.0
2014-Nov-25 06:33N 37°48' W 122°19'1 0.8
2014-Nov-25 05:33N 37°48' W 122°18'8 8.3
2014-Nov-25 04:34N 37°54' W 122°25'1 1.0
2014-Nov-25 03:34N 37°55' W 122°25'2 1.6
2014-Nov-25 02:34N 37°53' W 122°25'9 9.0
2014-Nov-25 01:33N 38°02' W 122°22'1110.0
2014-Nov-25 00:28N 38°02' W 122°08'0 0.1
2014-Nov-24 23:26N 38°02' W 122°08'0 0.0
2014-Nov-24 16:31N 38°02' W 122°08'0 0.0
2014-Nov-24 15:32N 38°02' W 122°08'3 0.3
2014-Nov-24 06:23N 38°03' W 122°11'8 8.7
2014-Nov-24 05:27N 38°02' W 122°21'8 8.6
2014-Nov-24 04:34N 37°55' W 122°25'7 7.3
2014-Nov-24 03:34N 37°48' W 122°24'1 0.9
2014-Nov-24 02:34N 37°48' W 122°23'7 6.8
2014-Nov-24 01:34N 37°49' W 122°31'4 3.7
2014-Nov-24 00:33N 37°51' W 122°27'5 4.7
2014-Nov-23 23:34N 37°54' W 122°23'0 0.0
2014-Nov-23 22:33N 37°54' W 122°23'7 6.6
2014-Nov-23 21:33N 38°01' W 122°23'10 9.7
2014-Nov-23 20:33N 38°03' W 122°11'3 2.5
2014-Nov-23 19:30N 38°02' W 122°08'0 0.4
2014-Nov-23 18:33N 38°02' W 122°08'2 2.2
2014-Nov-23 17:31N 38°03' W 122°05'2 2.0
2014-Nov-23 16:27N 38°03' W 122°08'0 0.0
2014-Nov-23 15:32N 38°03' W 122°08'1 0.1
2014-Nov-23 09:33N 38°02' W 122°08'0 0.1
2014-Nov-23 08:33N 38°02' W 122°08'1 0.8
2014-Nov-23 07:33N 38°02' W 122°09'4 0.6
2014-Nov-23 00:32N 38°04' W 122°14'1 1.2
2014-Nov-22 23:24N 38°04' W 122°15'2 0.5
2014-Nov-22 20:32N 38°04' W 122°13'9 9.0
2014-Nov-22 19:33N 38°01' W 122°24'6 5.6
2014-Nov-22 18:33N 37°56' W 122°27'7 6.7
2014-Nov-22 17:34N 37°49' W 122°26'3 2.8
2014-Nov-22 16:33N 37°49' W 122°30'8 7.6
2014-Nov-22 15:33N 37°54' W 122°23'0 0.0
2014-Nov-22 14:33N 37°54' W 122°23'0 0.0
2014-Nov-22 13:33N 37°54' W 122°23'0 0.0
2014-Nov-22 12:33N 37°54' W 122°23'2 1.7
2014-Nov-22 11:33N 37°56' W 122°25'1 0.6
2014-Nov-22 10:33N 37°55' W 122°25'5 5.2
2014-Nov-22 09:33N 37°50' W 122°27'3 3.1
2014-Nov-22 08:33N 37°48' W 122°30'4 3.9
2014-Nov-22 07:33N 37°51' W 122°27'5 4.6
2014-Nov-22 06:33N 37°54' W 122°23'1 1.1
2014-Nov-22 05:34N 37°54' W 122°22'0 0.1
2014-Nov-22 04:33N 37°54' W 122°22'2 2.3
2014-Nov-22 03:33N 37°55' W 122°25'1 1.3
2014-Nov-22 02:33N 37°54' W 122°23'0 0.0
2014-Nov-22 01:33N 37°54' W 122°23'0 0.0
2014-Nov-22 00:33N 37°54' W 122°23'0 0.0
2014-Nov-21 23:33N 37°54' W 122°23'0 0.0
2014-Nov-21 22:33N 37°54' W 122°23'0 0.0
2014-Nov-21 21:33N 37°54' W 122°23'0 0.0
2014-Nov-21 20:33N 37°54' W 122°23'1 1.1
2014-Nov-21 19:33N 37°55' W 122°22'0 0.0
2014-Nov-21 18:33N 37°55' W 122°22'0 0.0
2014-Nov-21 17:33N 37°55' W 122°22'1 1.1
2014-Nov-21 16:33N 37°54' W 122°23'0 0.0
2014-Nov-21 15:33N 37°54' W 122°23'0 0.0
2014-Nov-21 14:33N 37°54' W 122°23'0 0.0
2014-Nov-21 13:33N 37°54' W 122°23'0 0.0
2014-Nov-21 12:33N 37°54' W 122°23'0 0.0
2014-Nov-21 11:33N 37°54' W 122°23'0 0.0
2014-Nov-21 10:33N 37°55' W 122°23'1 0.8
2014-Nov-21 09:33N 37°55' W 122°24'1 0.7
2014-Nov-21 08:33N 37°55' W 122°25'0 0.0
2014-Nov-21 07:34N 37°55' W 122°25'3 3.2
2014-Nov-21 06:33N 37°52' W 122°24'4 3.9
2014-Nov-21 05:33N 37°48' W 122°24'0 0.0
2014-Nov-21 04:33N 37°48' W 122°24'0 0.0
2014-Nov-21 03:33N 37°48' W 122°24'0 0.0
2014-Nov-21 02:33N 37°48' W 122°24'0 0.0
2014-Nov-21 01:33N 37°48' W 122°24'0 0.0
2014-Nov-21 00:33N 37°48' W 122°24'0 0.0
2014-Nov-20 23:33N 37°48' W 122°24'0 0.0
2014-Nov-20 22:33N 37°48' W 122°24'0 0.0
2014-Nov-20 21:33N 37°48' W 122°24'1 0.7
2014-Nov-20 20:33N 37°49' W 122°24'1010.0
2014-Nov-20 19:33N 37°59' W 122°26'11 8.4
2014-Nov-20 18:15N 38°04' W 122°13'4 4.5
2014-Nov-20 17:28N 38°02' W 122°09'0 0.0
2014-Nov-20 15:19N 38°02' W 122°09'0 0.0
2014-Nov-20 06:31N 38°02' W 122°09'1 0.1
2014-Nov-19 21:33N 38°02' W 122°10'0 0.0
2014-Nov-19 17:21N 38°02' W 122°09'0 0.0
2014-Nov-19 16:27N 38°02' W 122°09'4 0.5
2014-Nov-19 08:32N 38°04' W 122°15'5 0.9
2014-Nov-19 03:32N 38°02' W 122°09'1 0.0
2014-Nov-18 05:06N 38°02' W 122°08'0 0.0
2014-Nov-17 19:07N 38°02' W 122°08'0 0.7
2014-Nov-17 18:33N 38°02' W 122°09'6 5.7
2014-Nov-17 17:33N 38°04' W 122°15'6 5.4
2014-Nov-17 16:30N 38°02' W 122°22'5 5.0
2014-Nov-17 15:33N 37°58' W 122°26'6 6.0
2014-Nov-17 14:33N 37°52' W 122°25'5 5.2
2014-Nov-17 13:33N 37°48' W 122°22'2 1.8
2014-Nov-17 12:33N 37°46' W 122°21'2 1.7
2014-Nov-17 11:33N 37°47' W 122°22'2 1.5
2014-Nov-17 10:33N 37°48' W 122°24'0 0.0
2014-Nov-17 09:33N 37°48' W 122°24'0 0.0
2014-Nov-17 08:33N 37°48' W 122°24'0 0.0
2014-Nov-17 07:33N 37°48' W 122°24'0 0.0
2014-Nov-17 06:33N 37°48' W 122°24'2 1.9
2014-Nov-17 05:33N 37°49' W 122°26'2 2.1
2014-Nov-17 04:33N 37°49' W 122°29'7 6.8
2014-Nov-17 03:34N 37°55' W 122°25'1 1.2
2014-Nov-17 02:33N 37°54' W 122°25'6 6.2
2014-Nov-17 01:33N 37°48' W 122°24'0 0.0
2014-Nov-17 00:33N 37°48' W 122°24'0 0.0
2014-Nov-16 23:33N 37°48' W 122°24'0 0.0
2014-Nov-16 22:33N 37°48' W 122°24'1 0.7
2014-Nov-16 21:33N 37°48' W 122°23'1 1.3
2014-Nov-16 20:33N 37°47' W 122°22'9 9.1
2014-Nov-16 19:33N 37°55' W 122°27'1010.1
2014-Nov-16 18:33N 38°03' W 122°19'8 7.9
2014-Nov-16 17:32N 38°02' W 122°09'1 0.3
2014-Nov-16 14:21N 38°02' W 122°08'10 1.1
2014-Nov-16 05:18N 38°02' W 122°21'  
Track history (hours):
 
Tides and Currents Weather Stations Pressure Air Temp Water Temp Dewpoint Dewpoint Depression Visibility Wind Speed Wind Dir Waves Ship Positions

Delta Billie

Owner: Baydelta Maritime, San Francicso, CA. More information available from US FCC via Universal Licensing System and Coast Guard Vessel Documentation Center.

Last reported at 2014-Nov-26 05:09 UTC. Time now 2014-Nov-26 06:31 UTC.
Position N 38°02' W 122°10'.

Length 30 m; draft 5.5 m.

Type: Towing. MMSI: 367401030.

Date/timePositionNaut miles runAvg speedWind from/ knotsBaromVisibWave heightAir tempDewpointWater temp
2014-Nov-26 05:09N 38°02' W 122°10'5 8.3
2014-Nov-26 04:31N 38°03' W 122°17'8 8.7
2014-Nov-26 03:33N 37°59' W 122°26'3 3.3
2014-Nov-26 02:34N 37°55' W 122°25'3 3.0
2014-Nov-26 01:34N 37°52' W 122°25'7 7.0
2014-Nov-26 00:33N 37°59' W 122°25'1110.2
2014-Nov-25 23:28N 38°04' W 122°12'1 0.3
2014-Nov-25 19:22N 38°03' W 122°11'8 8.8
2014-Nov-25 18:31N 38°03' W 122°20'9 9.5
2014-Nov-25 17:33N 37°55' W 122°27'6 6.5
2014-Nov-25 16:34N 37°49' W 122°29'1 1.1
2014-Nov-25 15:33N 37°48' W 122°30'5 4.5
2014-Nov-25 14:33N 37°48' W 122°24'0 0.0
2014-Nov-25 13:33N 37°48' W 122°24'0 0.0
2014-Nov-25 12:34N 37°48' W 122°24'0 0.0
2014-Nov-25 11:33N 37°48' W 122°24'5 5.2
2014-Nov-25 10:33N 37°48' W 122°17'1 0.9
2014-Nov-25 09:33N 37°48' W 122°18'1 0.6
2014-Nov-25 08:34N 37°48' W 122°19'0 0.0
2014-Nov-25 07:34N 37°48' W 122°19'0 0.0
2014-Nov-25 06:33N 37°48' W 122°19'1 0.8
2014-Nov-25 05:33N 37°48' W 122°18'8 8.3
2014-Nov-25 04:34N 37°54' W 122°25'1 1.0
2014-Nov-25 03:34N 37°55' W 122°25'2 1.6
2014-Nov-25 02:34N 37°53' W 122°25'9 9.0
2014-Nov-25 01:33N 38°02' W 122°22'1110.0
2014-Nov-25 00:28N 38°02' W 122°08'0 0.1
2014-Nov-24 23:26N 38°02' W 122°08'0 0.0
2014-Nov-24 16:31N 38°02' W 122°08'0 0.0
2014-Nov-24 15:32N 38°02' W 122°08'3 0.3
2014-Nov-24 06:23N 38°03' W 122°11'8 8.7
2014-Nov-24 05:27N 38°02' W 122°21'8 8.6
2014-Nov-24 04:34N 37°55' W 122°25'7 7.3
2014-Nov-24 03:34N 37°48' W 122°24'1 0.9
2014-Nov-24 02:34N 37°48' W 122°23'7 6.8
2014-Nov-24 01:34N 37°49' W 122°31'4 3.7
2014-Nov-24 00:33N 37°51' W 122°27'5 4.7
2014-Nov-23 23:34N 37°54' W 122°23'0 0.0
2014-Nov-23 22:33N 37°54' W 122°23'7 6.6
2014-Nov-23 21:33N 38°01' W 122°23'10 9.7
2014-Nov-23 20:33N 38°03' W 122°11'3 2.5
2014-Nov-23 19:30N 38°02' W 122°08'0 0.4
2014-Nov-23 18:33N 38°02' W 122°08'2 2.2
2014-Nov-23 17:31N 38°03' W 122°05'2 2.0
2014-Nov-23 16:27N 38°03' W 122°08'0 0.0
2014-Nov-23 15:32N 38°03' W 122°08'1 0.1
2014-Nov-23 09:33N 38°02' W 122°08'0 0.1
2014-Nov-23 08:33N 38°02' W 122°08'1 0.8
2014-Nov-23 07:33N 38°02' W 122°09'4 0.6
2014-Nov-23 00:32N 38°04' W 122°14'1 1.2
2014-Nov-22 23:24N 38°04' W 122°15'2 0.5
2014-Nov-22 20:32N 38°04' W 122°13'9 9.0
2014-Nov-22 19:33N 38°01' W 122°24'6 5.6
2014-Nov-22 18:33N 37°56' W 122°27'7 6.7
2014-Nov-22 17:34N 37°49' W 122°26'3 2.8
2014-Nov-22 16:33N 37°49' W 122°30'8 7.6
2014-Nov-22 15:33N 37°54' W 122°23'0 0.0
2014-Nov-22 14:33N 37°54' W 122°23'0 0.0
2014-Nov-22 13:33N 37°54' W 122°23'0 0.0
2014-Nov-22 12:33N 37°54' W 122°23'2 1.7
2014-Nov-22 11:33N 37°56' W 122°25'1 0.6
2014-Nov-22 10:33N 37°55' W 122°25'5 5.2
2014-Nov-22 09:33N 37°50' W 122°27'3 3.1
2014-Nov-22 08:33N 37°48' W 122°30'4 3.9
2014-Nov-22 07:33N 37°51' W 122°27'5 4.6
2014-Nov-22 06:33N 37°54' W 122°23'1 1.1
2014-Nov-22 05:34N 37°54' W 122°22'0 0.1
2014-Nov-22 04:33N 37°54' W 122°22'2 2.3
2014-Nov-22 03:33N 37°55' W 122°25'1 1.3
2014-Nov-22 02:33N 37°54' W 122°23'0 0.0
2014-Nov-22 01:33N 37°54' W 122°23'0 0.0
2014-Nov-22 00:33N 37°54' W 122°23'0 0.0
2014-Nov-21 23:33N 37°54' W 122°23'0 0.0
2014-Nov-21 22:33N 37°54' W 122°23'0 0.0
2014-Nov-21 21:33N 37°54' W 122°23'0 0.0
2014-Nov-21 20:33N 37°54' W 122°23'1 1.1
2014-Nov-21 19:33N 37°55' W 122°22'0 0.0
2014-Nov-21 18:33N 37°55' W 122°22'0 0.0
2014-Nov-21 17:33N 37°55' W 122°22'1 1.1
2014-Nov-21 16:33N 37°54' W 122°23'0 0.0
2014-Nov-21 15:33N 37°54' W 122°23'0 0.0
2014-Nov-21 14:33N 37°54' W 122°23'0 0.0
2014-Nov-21 13:33N 37°54' W 122°23'0 0.0
2014-Nov-21 12:33N 37°54' W 122°23'0 0.0
2014-Nov-21 11:33N 37°54' W 122°23'0 0.0
2014-Nov-21 10:33N 37°55' W 122°23'1 0.8
2014-Nov-21 09:33N 37°55' W 122°24'1 0.7
2014-Nov-21 08:33N 37°55' W 122°25'0 0.0
2014-Nov-21 07:34N 37°55' W 122°25'3 3.2
2014-Nov-21 06:33N 37°52' W 122°24'4 3.9
2014-Nov-21 05:33N 37°48' W 122°24'0 0.0
2014-Nov-21 04:33N 37°48' W 122°24'0 0.0
2014-Nov-21 03:33N 37°48' W 122°24'0 0.0
2014-Nov-21 02:33N 37°48' W 122°24'0 0.0
2014-Nov-21 01:33N 37°48' W 122°24'0 0.0
2014-Nov-21 00:33N 37°48' W 122°24'0 0.0
2014-Nov-20 23:33N 37°48' W 122°24'0 0.0
2014-Nov-20 22:33N 37°48' W 122°24'0 0.0
2014-Nov-20 21:33N 37°48' W 122°24'1 0.7
2014-Nov-20 20:33N 37°49' W 122°24'1010.0
2014-Nov-20 19:33N 37°59' W 122°26'11 8.4
2014-Nov-20 18:15N 38°04' W 122°13'4 4.5
2014-Nov-20 17:28N 38°02' W 122°09'0 0.0
2014-Nov-20 15:19N 38°02' W 122°09'0 0.0
2014-Nov-20 06:31N 38°02' W 122°09'1 0.1
2014-Nov-19 21:33N 38°02' W 122°10'0 0.0
2014-Nov-19 17:21N 38°02' W 122°09'0 0.0
2014-Nov-19 16:27N 38°02' W 122°09'4 0.5
2014-Nov-19 08:32N 38°04' W 122°15'5 0.9
2014-Nov-19 03:32N 38°02' W 122°09'1 0.0
2014-Nov-18 05:06N 38°02' W 122°08'0 0.0
2014-Nov-17 19:07N 38°02' W 122°08'0 0.7
2014-Nov-17 18:33N 38°02' W 122°09'6 5.7
2014-Nov-17 17:33N 38°04' W 122°15'6 5.4
2014-Nov-17 16:30N 38°02' W 122°22'5 5.0
2014-Nov-17 15:33N 37°58' W 122°26'6 6.0
2014-Nov-17 14:33N 37°52' W 122°25'5 5.2
2014-Nov-17 13:33N 37°48' W 122°22'2 1.8
2014-Nov-17 12:33N 37°46' W 122°21'2 1.7
2014-Nov-17 11:33N 37°47' W 122°22'2 1.5
2014-Nov-17 10:33N 37°48' W 122°24'0 0.0
2014-Nov-17 09:33N 37°48' W 122°24'0 0.0
2014-Nov-17 08:33N 37°48' W 122°24'0 0.0
2014-Nov-17 07:33N 37°48' W 122°24'0 0.0
2014-Nov-17 06:33N 37°48' W 122°24'2 1.9
2014-Nov-17 05:33N 37°49' W 122°26'2 2.1
2014-Nov-17 04:33N 37°49' W 122°29'7 6.8
2014-Nov-17 03:34N 37°55' W 122°25'1 1.2
2014-Nov-17 02:33N 37°54' W 122°25'6 6.2
2014-Nov-17 01:33N 37°48' W 122°24'0 0.0
2014-Nov-17 00:33N 37°48' W 122°24'0 0.0
2014-Nov-16 23:33N 37°48' W 122°24'0 0.0
2014-Nov-16 22:33N 37°48' W 122°24'1 0.7
2014-Nov-16 21:33N 37°48' W 122°23'1 1.3
2014-Nov-16 20:33N 37°47' W 122°22'9 9.1
2014-Nov-16 19:33N 37°55' W 122°27'1010.1
2014-Nov-16 18:33N 38°03' W 122°19'8 7.9
2014-Nov-16 17:32N 38°02' W 122°09'1 0.3
2014-Nov-16 14:21N 38°02' W 122°08'10 1.1
2014-Nov-16 05:18N 38°02' W 122°21'  

Dump ship's entire track history